Time;durP1;ratioP1;P1;durP2;ratioP2;P2;SDS_P1;SDS_P2;PMS_P1;PMS_P2;Temp;Humidity;BMP_temperature;BMP_pressure;BME280_temperature;BME280_humidity;BME280_pressure;Samples;Min_cycle;Max_cycle;Signal;HPM_P1;HPM_P2
2022/08/13 00:02:17;;;;;;;0.00;0.00;;;19.10;99.90;;;;;;5098503;28;20483;-78
2022/08/13 00:04:55;;;;;;;0.00;0.00;;;19.10;99.90;;;;;;5114689;28;20055;-78
2022/08/13 00:07:20;;;;;;;0.00;0.00;;;19.00;99.90;;;;;;5115300;28;20101;-78
2022/08/13 00:09:46;;;;;;;0.10;0.08;;;19.00;99.90;;;;;;5115167;28;20044;-77
2022/08/13 00:15:12;;;;;;;0.00;0.00;;;18.90;99.90;;;;;;5115106;28;20059;-78
2022/08/13 00:17:39;;;;;;;0.00;0.00;;;18.90;99.90;;;;;;5115270;28;20043;-78
2022/08/13 00:20:07;;;;;;;0.00;0.00;;;18.80;99.90;;;;;;5099044;28;20092;-78
2022/08/13 00:22:33;;;;;;;0.00;0.00;;;18.80;99.90;;;;;;5115028;28;20043;-78
2022/08/13 00:25:00;;;;;;;0.00;0.00;;;18.70;99.90;;;;;;5114962;28;20134;-78
2022/08/13 00:27:28;;;;;;;0.00;0.00;;;18.70;99.90;;;;;;5098165;28;20117;-78
2022/08/13 00:29:56;;;;;;;0.00;0.00;;;18.70;99.90;;;;;;5114888;28;20046;-78
2022/08/13 00:32:26;;;;;;;0.00;0.00;;;18.70;99.90;;;;;;5097754;28;20051;-78
2022/08/13 00:34:52;;;;;;;0.00;0.00;;;18.70;99.90;;;;;;5114740;28;20040;-78
2022/08/13 00:37:18;;;;;;;0.20;0.00;;;18.60;99.90;;;;;;5115079;28;20054;-78
2022/08/13 00:39:43;;;;;;;0.15;0.10;;;18.60;99.90;;;;;;5097854;28;20138;-78
2022/08/13 00:42:09;;;;;;;0.00;0.00;;;18.60;99.90;;;;;;5114825;28;20131;-78
2022/08/13 00:44:35;;;;;;;0.00;0.00;;;18.50;99.90;;;;;;5113948;28;20075;-78
2022/08/13 00:49:47;;;;;;;0.00;0.00;;;18.40;99.90;;;;;;5114631;28;20483;-78
2022/08/13 00:52:13;;;;;;;0.00;0.00;;;18.40;99.90;;;;;;5097541;28;20051;-78
2022/08/13 00:54:40;;;;;;;0.00;0.00;;;18.30;99.90;;;;;;5097404;28;20380;-78
2022/08/13 00:57:07;;;;;;;0.00;0.00;;;18.30;99.90;;;;;;5114259;28;20051;-78
2022/08/13 00:59:34;;;;;;;0.00;0.00;;;18.30;99.90;;;;;;5113896;28;20051;-78
2022/08/13 01:02:01;;;;;;;0.00;0.00;;;18.20;99.90;;;;;;5113980;28;20044;-78
2022/08/13 01:04:28;;;;;;;0.00;0.00;;;18.20;99.90;;;;;;5114594;28;20051;-77
2022/08/13 01:06:56;;;;;;;0.00;0.00;;;18.10;99.90;;;;;;5114312;28;20039;-78
2022/08/13 01:09:21;;;;;;;1.38;0.00;;;18.10;99.90;;;;;;5114198;28;20059;-78
2022/08/13 01:11:47;;;;;;;0.00;0.00;;;18.10;99.90;;;;;;5097195;28;20505;-78
2022/08/13 01:14:15;;;;;;;0.30;0.13;;;18.10;99.90;;;;;;5096968;28;20379;-78
2022/08/13 01:16:41;;;;;;;0.10;0.10;;;18.10;99.90;;;;;;5114004;28;20126;-78
2022/08/13 01:19:09;;;;;;;0.00;0.00;;;18.00;99.90;;;;;;5096812;28;20589;-78
2022/08/13 01:21:44;;;;;;;0.20;0.00;;;18.00;99.90;;;;;;5113936;28;20048;-78
2022/08/13 01:24:11;;;;;;;0.00;0.00;;;18.00;99.90;;;;;;5113729;28;20566;-78
2022/08/13 01:26:39;;;;;;;0.00;0.00;;;17.90;99.90;;;;;;5096840;28;20040;-79
2022/08/13 01:29:05;;;;;;;0.00;0.00;;;17.90;99.90;;;;;;5097902;28;20093;-79
2022/08/13 01:31:32;;;;;;;0.00;0.00;;;17.90;99.90;;;;;;5097353;28;20047;-79
2022/08/13 01:34:03;;;;;;;0.00;0.00;;;17.80;99.90;;;;;;5113915;28;20091;-79
2022/08/13 01:36:30;;;;;;;0.00;0.00;;;17.80;99.90;;;;;;5097158;28;20039;-79
2022/08/13 01:39:05;;;;;;;0.00;0.00;;;17.70;99.90;;;;;;5096825;28;20116;-79
2022/08/13 01:41:32;;;;;;;0.00;0.00;;;17.70;99.90;;;;;;5097273;28;20039;-79
2022/08/13 01:44:04;;;;;;;0.00;0.00;;;17.70;99.90;;;;;;5114262;28;20043;-79
2022/08/13 01:50:29;;;;;;;0.00;0.00;;;17.60;99.90;;;;;;5097280;28;20093;-79
2022/08/13 01:52:05;;;;;;;0.05;0.00;;;17.60;99.90;;;;;;5113796;28;20380;-79
2022/08/13 01:54:36;;;;;;;0.00;0.00;;;17.60;99.90;;;;;;5114307;28;20218;-79
2022/08/13 01:57:05;;;;;;;0.00;0.00;;;17.60;99.90;;;;;;5100934;28;20051;-79
2022/08/13 01:59:34;;;;;;;0.00;0.00;;;17.60;99.90;;;;;;5103588;28;20044;-79
2022/08/13 02:02:04;;;;;;;0.00;0.00;;;17.60;99.90;;;;;;5120749;28;20043;-79
2022/08/13 02:04:31;;;;;;;0.00;0.00;;;17.50;99.90;;;;;;5104121;28;20040;-79
2022/08/13 02:06:59;;;;;;;0.00;0.00;;;17.50;99.90;;;;;;5120779;28;20429;-79
2022/08/13 02:09:26;;;;;;;0.10;0.00;;;17.50;99.90;;;;;;5103624;28;20161;-79
2022/08/13 02:11:52;;;;;;;0.00;0.00;;;17.40;99.90;;;;;;5120961;28;20164;-79
2022/08/13 02:14:20;;;;;;;0.85;0.13;;;17.30;99.90;;;;;;5120230;28;20077;-79
2022/08/13 02:16:46;;;;;;;0.00;0.00;;;17.30;99.90;;;;;;5103283;28;20043;-79
2022/08/13 02:19:11;;;;;;;0.00;0.00;;;17.30;99.90;;;;;;5120621;28;20394;-79
2022/08/13 02:21:39;;;;;;;0.00;0.00;;;17.20;99.90;;;;;;5103578;28;20046;-79
2022/08/13 02:24:13;;;;;;;0.00;0.00;;;17.20;99.90;;;;;;5103391;28;20055;-79
2022/08/13 02:26:41;;;;;;;0.00;0.00;;;17.20;99.90;;;;;;5103527;28;20398;-79
2022/08/13 02:29:09;;;;;;;0.00;0.00;;;17.20;99.90;;;;;;5120650;28;20051;-79
2022/08/13 02:31:35;;;;;;;0.00;0.00;;;17.10;99.90;;;;;;5120405;28;20052;-79
2022/08/13 02:34:01;;;;;;;0.00;0.00;;;17.10;99.90;;;;;;5120479;28;20059;-79
2022/08/13 02:36:28;;;;;;;0.00;0.00;;;17.10;99.90;;;;;;5104168;28;20379;-79
2022/08/13 02:39:05;;;;;;;0.00;0.00;;;17.00;99.90;;;;;;5103499;28;20097;-79
2022/08/13 02:41:43;;;;;;;0.00;0.00;;;17.00;99.90;;;;;;5103785;28;20410;-79
2022/08/13 02:44:14;;;;;;;0.10;0.03;;;16.90;99.90;;;;;;5120596;28;20483;-79
2022/08/13 02:46:42;;;;;;;0.00;0.00;;;16.90;99.90;;;;;;5104020;28;20487;-79
2022/08/13 02:49:09;;;;;;;0.00;0.00;;;16.80;99.90;;;;;;5120508;28;20055;-79
2022/08/13 02:51:40;;;;;;;0.00;0.00;;;16.80;99.90;;;;;;5120002;28;20054;-79
2022/08/13 02:54:06;;;;;;;0.00;0.00;;;16.80;99.90;;;;;;5104004;28;20200;-79
2022/08/13 02:56:33;;;;;;;0.00;0.00;;;16.80;99.90;;;;;;5120734;28;20097;-79
2022/08/13 02:58:59;;;;;;;0.00;0.00;;;16.70;99.90;;;;;;5103191;28;20051;-79
2022/08/13 03:01:26;;;;;;;0.00;0.00;;;16.80;99.90;;;;;;5103084;28;20056;-79
2022/08/13 03:03:53;;;;;;;0.00;0.00;;;16.70;99.90;;;;;;5102763;28;20157;-79
2022/08/13 03:06:20;;;;;;;0.00;0.00;;;16.70;99.90;;;;;;5102251;28;20052;-79
2022/08/13 03:08:49;;;;;;;5.60;0.45;;;16.80;99.90;;;;;;5117085;28;20468;-79
2022/08/13 03:11:15;;;;;;;0.00;0.00;;;16.70;99.90;;;;;;5100000;28;20147;-79
2022/08/13 03:13:46;;;;;;;0.00;0.00;;;16.70;99.90;;;;;;5116621;28;20055;-79
2022/08/13 03:16:16;;;;;;;0.20;0.00;;;16.70;99.90;;;;;;5116536;28;20131;-79
2022/08/13 03:18:42;;;;;;;0.30;0.30;;;16.60;99.90;;;;;;5116553;28;20039;-79
2022/08/13 03:21:08;;;;;;;0.00;0.00;;;16.60;99.90;;;;;;5116776;28;20035;-79
2022/08/13 03:23:33;;;;;;;0.05;0.00;;;16.50;99.90;;;;;;5100037;28;20055;-79
2022/08/13 03:25:59;;;;;;;0.10;0.10;;;16.50;99.90;;;;;;5117169;28;20045;-79
2022/08/13 03:28:25;;;;;;;0.00;0.00;;;16.50;99.90;;;;;;5099739;28;20044;-79
2022/08/13 03:30:51;;;;;;;0.00;0.00;;;16.50;99.90;;;;;;5116462;28;20058;-79
2022/08/13 03:33:17;;;;;;;0.00;0.00;;;16.40;99.90;;;;;;5099724;28;20047;-79
2022/08/13 03:35:44;;;;;;;0.00;0.00;;;16.40;99.90;;;;;;5116772;28;20044;-79
2022/08/13 03:38:14;;;;;;;0.20;0.03;;;16.40;99.90;;;;;;5099351;28;20047;-79
2022/08/13 03:43:24;;;;;;;0.00;0.00;;;16.30;99.90;;;;;;5116412;28;20101;-79
2022/08/13 03:45:50;;;;;;;0.45;0.00;;;16.40;99.90;;;;;;5098680;28;20051;-79
2022/08/13 03:48:17;;;;;;;0.00;0.00;;;16.30;99.90;;;;;;5099064;28;20050;-79
2022/08/13 03:50:43;;;;;;;0.00;0.00;;;16.30;99.90;;;;;;5116230;28;20039;-79
2022/08/13 03:53:10;;;;;;;0.00;0.00;;;16.20;99.90;;;;;;5098732;28;20059;-79
2022/08/13 03:55:41;;;;;;;0.00;0.00;;;16.20;99.90;;;;;;5115930;28;20044;-79
2022/08/13 03:58:08;;;;;;;0.00;0.00;;;16.10;99.90;;;;;;5099108;28;20061;-79
2022/08/13 04:00:36;;;;;;;1.27;0.30;;;16.10;99.90;;;;;;5116125;28;20101;-79
2022/08/13 04:03:15;;;;;;;0.00;0.00;;;16.10;99.90;;;;;;5098724;28;20055;-79
2022/08/13 04:05:40;;;;;;;0.00;0.00;;;16.00;99.90;;;;;;5116489;28;20151;-79
2022/08/13 04:08:06;;;;;;;0.00;0.00;;;16.10;99.90;;;;;;5115594;28;20075;-79
2022/08/13 04:10:33;;;;;;;0.00;0.00;;;16.10;99.90;;;;;;5115636;28;20040;-79
2022/08/13 04:12:59;;;;;;;0.00;0.00;;;16.10;99.90;;;;;;5115731;28;20403;-79
2022/08/13 04:15:25;;;;;;;0.00;0.00;;;16.00;99.90;;;;;;5098381;28;20126;-79
2022/08/13 04:17:50;;;;;;;0.00;0.00;;;16.00;99.90;;;;;;5098530;28;20083;-79
2022/08/13 04:20:16;;;;;;;0.00;0.00;;;16.00;99.90;;;;;;5114579;28;20078;-79
2022/08/13 04:22:42;;;;;;;0.00;0.00;;;16.00;99.90;;;;;;5098630;28;20051;-79
2022/08/13 04:25:08;;;;;;;0.03;0.03;;;15.90;99.90;;;;;;5115778;28;20044;-79
2022/08/13 04:27:34;;;;;;;0.00;0.00;;;15.90;99.90;;;;;;5115518;28;20047;-79
2022/08/13 04:30:01;;;;;;;0.25;0.25;;;15.90;99.90;;;;;;5115555;28;20386;-79
2022/08/13 04:32:27;;;;;;;0.00;0.00;;;16.00;99.90;;;;;;5098245;28;20054;-79
2022/08/13 04:34:54;;;;;;;0.30;0.00;;;16.00;99.90;;;;;;5097716;28;20479;-78
2022/08/13 04:37:22;;;;;;;0.00;0.00;;;15.90;99.90;;;;;;5097392;28;20055;-77
2022/08/13 04:39:53;;;;;;;0.00;0.00;;;16.00;99.90;;;;;;5114871;28;20054;-78
2022/08/13 04:42:19;;;;;;;0.00;0.00;;;15.90;99.90;;;;;;5098161;28;20134;-78
2022/08/13 04:44:45;;;;;;;0.00;0.00;;;16.00;99.90;;;;;;5114745;28;20134;-79
2022/08/13 04:47:10;;;;;;;0.00;0.00;;;15.90;99.90;;;;;;5097757;28;20044;-79
2022/08/13 04:49:36;;;;;;;0.00;0.00;;;15.90;99.90;;;;;;5097712;28;20060;-79
2022/08/13 04:52:02;;;;;;;0.00;0.00;;;15.90;99.90;;;;;;5097192;28;20062;-79
2022/08/13 04:54:28;;;;;;;0.00;0.00;;;15.90;99.90;;;;;;5114367;28;20176;-79
2022/08/13 04:56:54;;;;;;;0.00;0.00;;;15.90;99.90;;;;;;5114661;28;20122;-79
2022/08/13 04:59:22;;;;;;;0.00;0.00;;;15.90;99.90;;;;;;5115057;28;20044;-79
2022/08/13 05:01:48;;;;;;;0.00;0.00;;;16.00;99.90;;;;;;5114471;28;20540;-79
2022/08/13 05:04:17;;;;;;;0.00;0.00;;;16.00;99.90;;;;;;5097493;28;20081;-79
2022/08/13 05:06:44;;;;;;;0.00;0.00;;;16.00;99.90;;;;;;5097707;28;20410;-79
2022/08/13 05:09:09;;;;;;;0.25;0.00;;;16.00;99.90;;;;;;5114325;28;20396;-79
2022/08/13 05:11:35;;;;;;;0.00;0.00;;;16.00;99.90;;;;;;5114050;28;20046;-79
2022/08/13 05:14:00;;;;;;;0.00;0.00;;;16.10;99.90;;;;;;5097769;28;20457;-79
2022/08/13 05:16:26;;;;;;;0.47;0.20;;;16.10;99.90;;;;;;5114423;28;20396;-79
2022/08/13 05:18:54;;;;;;;0.00;0.00;;;16.20;99.90;;;;;;5114382;28;20403;-79
2022/08/13 05:21:24;;;;;;;0.08;0.00;;;16.20;99.90;;;;;;5097141;28;20108;-78
2022/08/13 05:23:53;;;;;;;0.13;0.13;;;16.20;99.90;;;;;;5097225;28;20398;-79
2022/08/13 05:26:31;;;;;;;0.00;0.00;;;16.30;99.90;;;;;;5097067;28;20459;-79
2022/08/13 05:29:04;;;;;;;0.05;0.00;;;16.30;99.90;;;;;;5114203;28;20390;-79
2022/08/13 05:31:30;;;;;;;0.00;0.00;;;16.40;99.90;;;;;;5096467;28;20055;-80
2022/08/13 05:33:57;;;;;;;0.08;0.08;;;16.50;99.90;;;;;;5113975;28;20143;-79
2022/08/13 05:36:28;;;;;;;0.43;0.10;;;16.50;99.90;;;;;;5113962;28;20479;-79
2022/08/13 05:38:58;;;;;;;0.00;0.00;;;16.70;99.90;;;;;;5114362;28;20090;-80
2022/08/13 05:41:25;;;;;;;1.27;0.13;;;16.70;99.90;;;;;;5097176;28;20459;-80
2022/08/13 05:43:52;;;;;;;0.00;0.00;;;16.80;99.90;;;;;;5114268;28;20047;-79
2022/08/13 05:46:19;;;;;;;0.00;0.00;;;16.80;99.90;;;;;;5096466;28;20452;-79
2022/08/13 05:48:56;;;;;;;0.35;0.00;;;16.90;99.90;;;;;;5113872;28;20070;-79
2022/08/13 05:51:31;;;;;;;0.03;0.03;;;16.90;99.90;;;;;;5113872;28;20051;-79
2022/08/13 05:54:01;;;;;;;0.00;0.00;;;17.00;99.90;;;;;;5096934;28;20058;-79
2022/08/13 05:56:32;;;;;;;0.00;0.00;;;17.00;99.90;;;;;;5096718;28;20052;-79
2022/08/13 05:58:58;;;;;;;0.00;0.00;;;17.10;99.90;;;;;;5096826;28;20128;-80
2022/08/13 06:04:10;;;;;;;0.00;0.00;;;17.20;99.90;;;;;;5114438;28;20387;-80
2022/08/13 06:06:36;;;;;;;0.00;0.00;;;17.30;99.90;;;;;;5095722;28;20428;-80
2022/08/13 06:09:05;;;;;;;0.00;0.00;;;17.40;99.90;;;;;;5095700;28;20212;-80
2022/08/13 06:11:31;;;;;;;0.00;0.00;;;17.50;99.90;;;;;;5112695;28;20067;-80
2022/08/13 06:13:57;;;;;;;0.00;0.00;;;17.50;99.90;;;;;;5096188;28;20040;-80
2022/08/13 06:16:28;;;;;;;0.00;0.00;;;17.70;99.90;;;;;;5096236;28;20039;-78
2022/08/13 06:18:57;;;;;;;0.00;0.00;;;17.70;99.90;;;;;;5095850;28;20130;-78
2022/08/13 06:21:24;;;;;;;0.10;0.00;;;17.80;99.90;;;;;;5096133;28;20044;-78
2022/08/13 06:23:51;;;;;;;0.20;0.20;;;17.90;99.90;;;;;;5113011;28;20086;-78
2022/08/13 06:26:19;;;;;;;0.00;0.00;;;17.90;99.90;;;;;;5112529;28;20056;-77
2022/08/13 06:28:52;;;;;;;0.00;0.00;;;18.00;99.90;;;;;;5112538;28;20113;-78
2022/08/13 06:31:25;;;;;;;0.00;0.00;;;18.10;99.90;;;;;;5096380;28;20055;-78
2022/08/13 06:33:56;;;;;;;0.00;0.00;;;18.20;99.90;;;;;;5113206;28;20048;-78
2022/08/13 06:36:28;;;;;;;0.00;0.00;;;18.30;99.90;;;;;;5113072;28;20048;-78
2022/08/13 06:38:56;;;;;;;0.00;0.00;;;18.40;99.90;;;;;;5095833;28;20048;-78
2022/08/13 06:41:22;;;;;;;0.00;0.00;;;18.50;99.90;;;;;;5113103;28;20047;-78
2022/08/13 06:43:53;;;;;;;0.00;0.00;;;18.60;99.90;;;;;;5098190;28;20135;-78
2022/08/13 06:46:22;;;;;;;0.00;0.00;;;18.70;99.90;;;;;;5116806;28;20047;-78
2022/08/13 06:48:49;;;;;;;0.00;0.00;;;18.80;99.90;;;;;;5116855;28;20071;-78
2022/08/13 06:51:15;;;;;;;0.00;0.00;;;18.90;99.90;;;;;;5116477;28;20433;-78
2022/08/13 06:53:43;;;;;;;0.00;0.00;;;19.10;99.90;;;;;;5116837;28;20063;-78
2022/08/13 06:56:21;;;;;;;0.10;0.00;;;19.30;99.90;;;;;;5100053;28;20040;-78
2022/08/13 06:58:49;;;;;;;0.00;0.00;;;19.70;99.90;;;;;;5099857;28;20134;-78
2022/08/13 07:01:21;;;;;;;0.98;0.20;;;20.50;99.90;;;;;;5099642;28;20044;-78
2022/08/13 07:03:48;;;;;;;0.00;0.00;;;21.40;99.90;;;;;;5099472;28;20099;-78
2022/08/13 07:06:19;;;;;;;0.40;0.10;;;22.30;99.60;;;;;;5099887;28;20047;-78
2022/08/13 07:08:46;;;;;;;0.00;0.00;;;23.40;97.60;;;;;;5116918;28;20050;-78
2022/08/13 07:11:24;;;;;;;0.17;0.00;;;24.50;94.80;;;;;;5099776;28;20051;-78
2022/08/13 07:14:01;;;;;;;1.08;0.20;;;25.20;93.40;;;;;;5116344;28;20132;-78
2022/08/13 07:16:32;;;;;;;0.00;0.00;;;25.50;91.10;;;;;;5099241;28;20070;-78
2022/08/13 07:18:59;;;;;;;0.20;0.20;;;25.40;87.30;;;;;;5099573;28;20055;-78
2022/08/13 07:21:26;;;;;;;0.00;0.00;;;25.20;91.70;;;;;;5099097;28;20051;-79
2022/08/13 07:23:53;;;;;;;0.00;0.00;;;25.40;89.80;;;;;;5116162;28;20055;-79
2022/08/13 07:26:21;;;;;;;0.10;0.05;;;25.60;88.00;;;;;;5098731;28;20056;-79
2022/08/13 07:28:49;;;;;;;0.00;0.00;;;25.90;85.80;;;;;;5098558;28;20093;-78
2022/08/13 07:31:30;;;;;;;0.03;0.00;;;26.00;85.10;;;;;;5098858;28;20515;-78
2022/08/13 07:33:59;;;;;;;0.08;0.00;;;25.70;84.00;;;;;;5099168;28;20044;-78
2022/08/13 07:36:29;;;;;;;0.00;0.00;;;25.30;85.30;;;;;;5098283;28;20146;-78
2022/08/13 07:38:56;;;;;;;0.00;0.00;;;25.10;87.20;;;;;;5099014;28;20051;-78
2022/08/13 07:41:23;;;;;;;0.00;0.00;;;25.00;89.30;;;;;;5115140;28;20055;-78
2022/08/13 07:43:49;;;;;;;0.00;0.00;;;24.80;87.20;;;;;;5115664;28;20100;-78
2022/08/13 07:46:17;;;;;;;0.00;0.00;;;24.70;86.80;;;;;;5115821;28;20039;-79
2022/08/13 07:48:51;;;;;;;0.00;0.00;;;24.60;86.50;;;;;;5115921;28;20092;-78
2022/08/13 07:51:21;;;;;;;;;;;24.60;86.30;;;;;;5115716;28;20138;-79
2022/08/13 07:53:52;;;;;;;0.00;0.00;;;24.60;89.30;;;;;;5098476;28;19919;-79
2022/08/13 07:56:28;;;;;;;0.00;0.00;;;24.60;86.60;;;;;;5115637;28;20042;-79
2022/08/13 07:59:00;;;;;;;0.00;0.00;;;24.60;90.30;;;;;;5098117;28;20411;-79
2022/08/13 08:01:27;;;;;;;0.00;0.00;;;24.70;88.00;;;;;;5097885;28;20062;-79
2022/08/13 08:03:57;;;;;;;0.00;0.00;;;24.80;89.20;;;;;;5098611;28;20055;-79
2022/08/13 08:06:24;;;;;;;0.00;0.00;;;24.80;85.70;;;;;;5115523;28;20071;-79
2022/08/13 08:08:53;;;;;;;0.00;0.00;;;24.80;85.70;;;;;;5115742;28;20180;-79
2022/08/13 08:14:06;;;;;;;0.30;0.10;;;24.80;88.60;;;;;;5115161;28;20043;-79
2022/08/13 08:16:35;;;;;;;0.08;0.00;;;24.80;84.00;;;;;;5115351;28;20043;-79
2022/08/13 08:19:02;;;;;;;0.00;0.00;;;24.80;85.20;;;;;;5115093;28;20596;-79
2022/08/13 08:21:28;;;;;;;0.00;0.00;;;24.80;83.90;;;;;;5115031;28;20039;-79
2022/08/13 08:24:01;;;;;;;0.00;0.00;;;24.90;83.20;;;;;;5098054;28;20052;-79
2022/08/13 08:26:32;;;;;;;0.00;0.00;;;24.90;84.50;;;;;;5098025;28;20138;-79
2022/08/13 08:29:00;;;;;;;0.00;0.00;;;25.00;87.20;;;;;;5098069;28;20057;-79
2022/08/13 08:31:27;;;;;;;0.00;0.00;;;25.10;87.10;;;;;;5097817;28;20051;-79
2022/08/13 08:33:55;;;;;;;0.10;0.10;;;25.10;85.70;;;;;;5098008;28;20048;-79
2022/08/13 08:36:22;;;;;;;0.00;0.00;;;25.20;83.30;;;;;;5097682;28;20435;-79
2022/08/13 08:44:30;;;;;;;0.00;0.00;;;25.50;90.10;;;;;;5114864;28;20051;-79
2022/08/13 08:46:57;;;;;;;0.30;0.05;;;25.60;87.80;;;;;;5098084;28;20047;-79
2022/08/13 08:49:24;;;;;;;0.00;0.00;;;25.70;85.00;;;;;;5114697;28;20039;-79
2022/08/13 08:51:52;;;;;;;0.00;0.00;;;25.80;85.60;;;;;;5096974;28;20479;-79
2022/08/13 08:54:20;;;;;;;0.00;0.00;;;26.00;81.50;;;;;;5114289;28;20058;-79
2022/08/13 08:56:47;;;;;;;0.00;0.00;;;26.10;80.50;;;;;;5097285;28;20044;-79
2022/08/13 08:59:15;;;;;;;0.00;0.00;;;26.20;80.90;;;;;;5114556;28;20085;-79
2022/08/13 09:01:44;;;;;;;0.00;0.00;;;26.30;79.60;;;;;;5114540;28;20166;-79
2022/08/13 09:04:11;;;;;;;0.00;0.00;;;26.40;79.80;;;;;;5097282;28;20086;-79
2022/08/13 09:06:38;;;;;;;0.00;0.00;;;26.60;79.00;;;;;;5096425;28;20039;-79
2022/08/13 09:09:06;;;;;;;0.00;0.00;;;26.70;77.10;;;;;;5096796;28;20090;-78
2022/08/13 09:11:34;;;;;;;0.00;0.00;;;26.80;80.00;;;;;;5096575;28;20059;-78
2022/08/13 09:14:08;;;;;;;0.00;0.00;;;26.90;74.90;;;;;;5096679;28;20055;-78
2022/08/13 09:16:38;;;;;;;0.00;0.00;;;27.10;77.70;;;;;;5114030;28;20090;-78
2022/08/13 09:19:06;;;;;;;0.05;0.00;;;27.20;73.80;;;;;;5113683;28;20047;-78
2022/08/13 09:21:41;;;;;;;0.00;0.00;;;27.20;74.50;;;;;;5096397;28;20064;-78
2022/08/13 09:24:09;;;;;;;0.00;0.00;;;27.30;72.60;;;;;;5097376;28;20188;-78
2022/08/13 09:26:37;;;;;;;0.05;0.05;;;27.40;72.60;;;;;;5096580;28;20052;-77
2022/08/13 09:29:03;;;;;;;0.10;0.00;;;27.50;73.70;;;;;;5113579;28;20054;-77
2022/08/13 09:31:29;;;;;;;0.00;0.00;;;27.70;73.80;;;;;;5095437;28;20060;-77
2022/08/13 09:33:55;;;;;;;0.00;0.00;;;27.70;70.60;;;;;;5113475;28;20126;-77
2022/08/13 09:36:22;;;;;;;0.00;0.00;;;27.90;69.40;;;;;;5113557;28;20460;-78
2022/08/13 09:38:49;;;;;;;0.00;0.00;;;28.00;72.70;;;;;;5113500;28;20058;-77
2022/08/13 09:41:27;;;;;;;0.00;0.00;;;28.10;66.30;;;;;;5096604;28;20051;-77
2022/08/13 09:43:55;;;;;;;0.00;0.00;;;28.20;67.00;;;;;;5113709;28;20043;-78
2022/08/13 09:46:21;;;;;;;0.15;0.15;;;28.20;66.30;;;;;;5113096;28;20398;-78
2022/08/13 09:48:50;;;;;;;0.22;0.08;;;28.30;66.80;;;;;;5113506;28;20085;-78
2022/08/13 09:51:17;;;;;;;0.00;0.00;;;28.40;64.70;;;;;;5095445;28;20043;-79
2022/08/13 09:53:46;;;;;;;0.00;0.00;;;28.50;66.80;;;;;;5096067;28;20087;-78
2022/08/13 09:56:17;;;;;;;0.00;0.00;;;28.60;64.40;;;;;;5095874;28;20514;-77
2022/08/13 09:58:49;;;;;;;0.00;0.00;;;28.70;66.10;;;;;;5096022;28;20499;-77
2022/08/13 10:01:15;;;;;;;0.00;0.00;;;28.80;63.70;;;;;;5113631;28;20058;-78
2022/08/13 10:03:42;;;;;;;0.00;0.00;;;28.90;64.10;;;;;;5113039;28;20554;-78
2022/08/13 10:06:10;;;;;;;0.00;0.00;;;29.00;61.40;;;;;;5112675;28;20500;-78
2022/08/13 10:08:36;;;;;;;0.00;0.00;;;29.10;65.20;;;;;;5113426;28;20051;-78
2022/08/13 10:11:02;;;;;;;0.00;0.00;;;29.20;61.70;;;;;;5095135;28;20494;-80
2022/08/13 10:13:28;;;;;;;0.00;0.00;;;29.40;62.50;;;;;;5095897;28;20193;-79
2022/08/13 10:15:54;;;;;;;0.00;0.00;;;29.50;64.40;;;;;;5095929;28;20538;-79
2022/08/13 10:18:20;;;;;;;0.00;0.00;;;29.60;65.30;;;;;;5098814;28;20087;-79
2022/08/13 10:20:48;;;;;;;0.00;0.00;;;29.70;60.00;;;;;;5100170;28;20043;-78
2022/08/13 10:23:16;;;;;;;0.00;0.00;;;29.70;59.50;;;;;;5117362;28;20050;-79
2022/08/13 10:25:43;;;;;;;0.00;0.00;;;29.60;58.30;;;;;;5100088;28;20052;-79
2022/08/13 10:28:31;;;;;;;0.00;0.00;;;29.70;59.50;;;;;;5116807;28;20393;-79
2022/08/13 10:31:08;;;;;;;0.47;0.10;;;29.80;62.00;;;;;;5100370;28;20043;-79
2022/08/13 10:33:37;;;;;;;0.00;0.00;;;29.90;62.20;;;;;;5100051;28;20491;-79
2022/08/13 10:36:05;;;;;;;0.00;0.00;;;30.10;61.40;;;;;;5116775;28;20036;-78
2022/08/13 10:38:32;;;;;;;0.00;0.00;;;30.30;60.90;;;;;;5099855;28;20536;-79
2022/08/13 10:41:00;;;;;;;0.00;0.00;;;30.40;59.20;;;;;;5099796;28;20097;-79
2022/08/13 10:43:27;;;;;;;0.20;0.00;;;30.50;58.80;;;;;;5099533;28;20047;-79
2022/08/13 10:45:59;;;;;;;0.00;0.00;;;30.60;59.10;;;;;;5117960;28;20392;-79
2022/08/13 10:48:26;;;;;;;0.00;0.00;;;30.70;60.10;;;;;;5100075;28;20082;-79
2022/08/13 10:50:53;;;;;;;0.03;0.00;;;30.80;60.30;;;;;;5099532;28;20091;-79
2022/08/13 10:56:05;;;;;;;0.00;0.00;;;30.90;56.70;;;;;;5116404;28;20402;-79
2022/08/13 10:58:31;;;;;;;0.00;0.00;;;31.00;56.70;;;;;;5099574;28;20142;-80
2022/08/13 11:01:03;;;;;;;0.22;0.22;;;31.20;59.20;;;;;;5099735;28;20134;-79
2022/08/13 11:03:33;;;;;;;0.00;0.00;;;31.30;57.80;;;;;;5098843;28;20052;-79
2022/08/13 11:06:04;;;;;;;0.00;0.00;;;31.30;55.60;;;;;;5116459;28;20047;-79
2022/08/13 11:08:36;;;;;;;0.10;0.00;;;31.40;57.70;;;;;;5116480;28;20124;-79
2022/08/13 11:11:06;;;;;;;0.00;0.00;;;31.40;54.80;;;;;;5099469;28;20067;-79
2022/08/13 11:13:32;;;;;;;0.00;0.00;;;31.40;56.00;;;;;;5116119;28;20054;-80
2022/08/13 11:15:59;;;;;;;0.00;0.00;;;31.20;53.20;;;;;;5115708;28;20122;-79
2022/08/13 11:18:26;;;;;;;0.75;0.17;;;31.20;53.90;;;;;;5099259;28;20052;-79
2022/08/13 11:21:08;;;;;;;0.00;0.00;;;31.30;55.00;;;;;;5094479;28;20058;-80
2022/08/13 11:23:35;;;;;;;0.00;0.00;;;31.40;53.90;;;;;;5099488;28;20118;-81
2022/08/13 11:26:02;;;;;;;0.00;0.00;;;31.40;53.00;;;;;;5098641;28;20071;-81
2022/08/13 11:28:27;;;;;;;0.00;0.00;;;31.60;55.00;;;;;;5115689;28;20491;-81
2022/08/13 11:30:55;;;;;;;0.00;0.00;;;31.60;54.80;;;;;;5098423;28;20061;-81
2022/08/13 11:33:24;;;;;;;0.00;0.00;;;31.60;54.80;;;;;;5115957;28;20040;-81
2022/08/13 11:35:52;;;;;;;0.10;0.08;;;31.60;54.60;;;;;;5115813;28;20043;-81
2022/08/13 11:38:20;;;;;;;0.00;0.00;;;31.60;53.00;;;;;;5098890;28;20047;-81
2022/08/13 11:40:58;;;;;;;0.00;0.00;;;31.60;53.60;;;;;;5116068;28;20040;-81
2022/08/13 11:43:26;;;;;;;0.00;0.00;;;31.80;56.30;;;;;;5116032;28;20495;-81
2022/08/13 11:45:52;;;;;;;0.00;0.00;;;31.90;54.00;;;;;;5115956;28;20082;-81
2022/08/13 11:48:19;;;;;;;0.00;0.00;;;31.90;52.90;;;;;;5098804;28;20489;-81
2022/08/13 11:50:45;;;;;;;0.05;0.03;;;31.90;52.90;;;;;;5098802;28;20495;-81
2022/08/13 11:53:11;;;;;;;0.00;0.00;;;32.00;53.10;;;;;;5097747;28;20491;-81
2022/08/13 11:55:37;;;;;;;0.00;0.00;;;32.10;51.10;;;;;;5115549;28;20046;-81
2022/08/13 11:58:06;;;;;;;0.00;0.00;;;32.20;54.20;;;;;;5099237;28;20043;-81
2022/08/13 12:00:36;;;;;;;0.00;0.00;;;32.40;52.40;;;;;;5098817;28;20146;-80
2022/08/13 12:03:02;;;;;;;0.00;0.00;;;32.50;52.50;;;;;;5098702;28;20138;-80
2022/08/13 12:05:28;;;;;;;0.03;0.00;;;32.50;49.90;;;;;;5096742;28;20048;-83
2022/08/13 12:07:54;;;;;;;0.20;0.00;;;32.40;52.10;;;;;;5106504;28;20079;-82
2022/08/13 12:10:20;;;;;;;0.00;0.00;;;32.00;49.80;;;;;;5076025;28;20087;-81
2022/08/13 12:12:45;;;;;;;0.10;0.00;;;31.70;50.40;;;;;;5094192;28;20090;-81
2022/08/13 12:15:12;;;;;;;0.00;0.00;;;31.80;52.80;;;;;;5094779;28;20093;-81
2022/08/13 12:17:43;;;;;;;0.00;0.00;;;32.00;52.70;;;;;;5094919;28;20044;-81
2022/08/13 12:20:13;;;;;;;0.05;0.00;;;32.10;51.50;;;;;;5077540;28;20087;-81
2022/08/13 12:22:40;;;;;;;0.00;0.00;;;32.10;49.20;;;;;;5077338;28;20056;-81
2022/08/13 12:25:08;;;;;;;0.20;0.00;;;32.20;51.30;;;;;;5077074;28;20108;-81
2022/08/13 12:27:34;;;;;;;0.00;0.00;;;32.40;51.80;;;;;;5077654;28;20059;-81
2022/08/13 12:30:00;;;;;;;0.00;0.00;;;32.50;49.30;;;;;;5077734;28;20134;-81
2022/08/13 12:32:26;;;;;;;0.00;0.00;;;32.70;49.20;;;;;;5077049;28;20056;-81
2022/08/13 12:34:52;;;;;;;0.00;0.00;;;32.80;48.50;;;;;;5094102;28;20120;-80
2022/08/13 12:37:17;;;;;;;0.00;0.00;;;32.90;49.40;;;;;;5094165;28;20048;-81
2022/08/13 12:39:43;;;;;;;0.00;0.00;;;32.90;48.90;;;;;;5094736;28;20357;-81
2022/08/13 12:42:09;;;;;;;0.00;0.00;;;33.00;48.20;;;;;;5076627;28;20133;-81
2022/08/13 12:44:34;;;;;;;0.00;0.00;;;32.90;50.70;;;;;;5095040;28;20416;-81
2022/08/13 12:47:01;;;;;;;0.00;0.00;;;33.00;49.30;;;;;;5094127;28;20135;-81
2022/08/13 12:49:27;;;;;;;0.00;0.00;;;33.10;49.70;;;;;;5075037;28;20078;-83
2022/08/13 12:51:52;;;;;;;0.00;0.00;;;33.10;47.70;;;;;;5075123;28;20088;-82
2022/08/13 12:54:18;;;;;;;0.00;0.00;;;33.10;48.90;;;;;;5102603;28;20384;-80
2022/08/13 12:56:45;;;;;;;0.00;0.00;;;33.20;49.10;;;;;;5092965;28;20494;-81
2022/08/13 12:59:11;;;;;;;0.00;0.00;;;33.20;48.60;;;;;;5081068;28;20417;-80
2022/08/13 13:01:36;;;;;;;0.10;0.00;;;33.20;51.80;;;;;;5082843;28;20079;-78
2022/08/13 13:04:02;;;;;;;0.00;0.00;;;33.20;48.20;;;;;;5074472;28;20048;-81
2022/08/13 13:06:28;;;;;;;0.00;0.00;;;33.00;47.40;;;;;;5092052;28;20550;-79
2022/08/13 13:08:53;;;;;;;0.00;0.00;;;32.80;49.00;;;;;;5092378;28;20090;-79
2022/08/13 13:11:19;;;;;;;0.00;0.00;;;32.90;50.10;;;;;;5081050;28;20059;-79
2022/08/13 13:13:49;;;;;;;0.20;0.20;;;33.00;50.30;;;;;;5112396;28;20089;-80
2022/08/13 13:16:16;;;;;;;0.00;0.00;;;33.00;49.70;;;;;;5095135;28;20055;-81
2022/08/13 13:18:43;;;;;;;0.00;0.00;;;32.80;49.10;;;;;;5112442;28;20054;-80